createdAt,value
2018-04-16T00:00:06.835Z,7.53
2018-04-16T00:03:10.803Z,7.00
2018-04-16T00:06:13.983Z,7.40
2018-04-16T00:09:17.162Z,7.20
2018-04-16T00:12:20.337Z,6.10
2018-04-16T00:15:23.563Z,6.70
2018-04-16T00:18:26.759Z,6.37
2018-04-16T00:21:29.931Z,6.53
2018-04-16T00:24:33.858Z,6.67
2018-04-16T00:27:37.063Z,7.77
2018-04-16T00:30:40.307Z,8.27
2018-04-16T00:33:50.014Z,7.73
2018-04-16T00:36:58.807Z,7.93
2018-04-16T00:40:07.594Z,10.00
2018-04-16T00:46:52.245Z,9.10
2018-04-16T00:50:13.208Z,7.90
2018-04-16T00:53:22.767Z,7.87
2018-04-16T00:56:32.457Z,7.50
2018-04-16T00:59:42.118Z,9.00
2018-04-16T01:02:51.096Z,10.67
2018-04-16T01:06:00.167Z,9.80
2018-04-16T01:09:09.058Z,9.37
2018-04-16T01:12:17.993Z,9.40
2018-04-16T01:15:26.965Z,8.90
2018-04-16T01:18:35.924Z,10.20
2018-04-16T01:21:44.884Z,9.97
2018-04-16T01:24:54.446Z,10.63
2018-04-16T01:28:03.352Z,12.70
2018-04-16T01:31:12.735Z,12.80
2018-04-16T01:34:21.632Z,14.53
2018-04-16T01:37:30.562Z,14.13
2018-04-16T01:40:39.612Z,11.60
2018-04-16T01:43:48.466Z,11.83
2018-04-16T01:46:58.301Z,12.70
2018-04-16T01:50:07.204Z,13.23
2018-04-16T01:53:16.014Z,13.50
2018-04-16T01:56:24.910Z,14.07
2018-04-16T01:59:34.597Z,13.63
2018-04-16T02:02:43.551Z,13.17
2018-04-16T02:05:52.526Z,14.07
2018-04-16T02:09:01.459Z,15.17
2018-04-16T02:12:11.188Z,15.47
2018-04-16T02:15:20.902Z,16.53
2018-04-16T02:18:29.814Z,15.73
2018-04-16T02:21:38.865Z,14.10
2018-04-16T02:24:47.720Z,14.90
2018-04-16T02:31:34.888Z,16.00
2018-04-16T02:34:44.607Z,18.70
2018-04-16T02:37:53.546Z,16.73
2018-04-16T02:41:03.064Z,16.97
2018-04-16T02:44:11.949Z,15.93
2018-04-16T02:47:20.755Z,14.40
2018-04-16T02:50:30.400Z,15.17
2018-04-16T02:53:41.681Z,15.60
2018-04-16T02:56:50.563Z,15.27
2018-04-16T02:59:59.397Z,15.20
2018-04-16T03:03:08.458Z,13.90
2018-04-16T03:06:17.415Z,16.10
2018-04-16T03:09:26.261Z,15.03
2018-04-16T03:12:35.252Z,16.63
2018-04-16T03:15:44.458Z,18.97
2018-04-16T03:18:58.985Z,16.93
2018-04-16T03:22:07.848Z,17.07
2018-04-16T03:25:16.780Z,19.93
2018-04-16T03:28:25.672Z,18.03
2018-04-16T03:31:34.444Z,18.47
2018-04-16T03:34:44.091Z,19.43
2018-04-16T03:37:53.840Z,20.40
2018-04-16T03:41:03.584Z,18.70
2018-04-16T03:44:13.202Z,18.30
2018-04-16T03:47:21.986Z,19.27
2018-04-16T03:50:30.938Z,19.27
2018-04-16T03:53:39.786Z,20.37
2018-04-16T03:56:43.202Z,20.60
2018-04-16T03:59:46.989Z,19.97
2018-04-16T04:02:50.183Z,21.27
2018-04-16T04:05:53.403Z,21.47
2018-04-16T04:08:57.380Z,21.97
2018-04-16T04:12:00.595Z,20.97
2018-04-16T04:15:03.870Z,22.60
2018-04-16T04:18:07.470Z,21.90
2018-04-16T04:21:10.642Z,20.23
2018-04-16T04:24:26.497Z,21.30
2018-04-16T04:31:04.982Z,21.50
2018-04-16T04:34:08.152Z,22.83
2018-04-16T04:37:11.362Z,21.87
2018-04-16T04:40:16.177Z,23.03
2018-04-16T04:43:21.588Z,21.27
2018-04-16T04:46:24.731Z,22.93
2018-04-16T04:49:27.945Z,22.87
2018-04-16T04:52:31.146Z,23.73
2018-04-16T04:55:34.357Z,24.43
2018-04-16T04:58:37.539Z,24.33
2018-04-16T05:01:40.816Z,22.70
2018-04-16T05:04:44.045Z,23.40
2018-04-16T05:07:47.268Z,22.10
2018-04-16T05:10:51.240Z,22.93
2018-04-16T05:13:55.210Z,23.27
2018-04-16T05:16:58.459Z,23.60
2018-04-16T05:20:01.649Z,23.27
2018-04-16T05:23:05.653Z,21.60
2018-04-16T05:26:08.854Z,24.57
2018-04-16T05:29:12.080Z,22.37
2018-04-16T05:32:15.319Z,24.47
2018-04-16T05:35:18.529Z,22.50
2018-04-16T05:38:21.770Z,23.47
2018-04-16T05:41:25.082Z,21.40
2018-04-16T05:44:28.797Z,23.67
2018-04-16T05:47:31.992Z,24.67
2018-04-16T05:50:35.938Z,23.13
2018-04-16T05:53:39.131Z,23.03
2018-04-16T05:56:42.384Z,24.33
2018-04-16T05:59:45.618Z,22.67
2018-04-16T06:02:48.782Z,20.97
2018-04-16T06:05:52.022Z,19.83
2018-04-16T06:08:55.219Z,19.60
2018-04-16T06:11:58.461Z,20.30
2018-04-16T06:15:01.633Z,19.63
2018-04-16T06:18:05.684Z,19.97
2018-04-16T06:21:08.877Z,22.07
2018-04-16T06:24:12.076Z,21.17
2018-04-16T06:27:15.249Z,22.47
2018-04-16T06:30:18.447Z,22.03
2018-04-16T06:33:21.619Z,22.67
2018-04-16T06:36:26.532Z,22.53
2018-04-16T06:39:29.711Z,23.37
2018-04-16T06:42:32.903Z,23.00
2018-04-16T06:45:36.063Z,24.17
2018-04-16T06:48:39.285Z,23.17
2018-04-16T06:51:42.611Z,21.97
2018-04-16T06:54:45.914Z,25.57
2018-04-16T06:57:49.880Z,24.30
2018-04-16T07:00:53.136Z,22.93
2018-04-16T07:03:56.355Z,24.20
2018-04-16T07:06:59.623Z,26.53
2018-04-16T07:10:03.050Z,25.90
2018-04-16T07:13:06.228Z,25.97
2018-04-16T07:16:09.444Z,24.57
2018-04-16T07:19:12.699Z,23.30
2018-04-16T07:22:15.910Z,23.83
2018-04-16T07:25:19.860Z,25.20
2018-04-16T07:28:23.792Z,26.57
2018-04-16T07:31:27.016Z,27.93
2018-04-16T07:34:30.201Z,26.80
2018-04-16T07:37:34.174Z,25.67
2018-04-16T07:40:37.406Z,27.73
2018-04-16T07:43:40.638Z,26.80
2018-04-16T07:46:44.587Z,28.27
2018-04-16T07:49:49.428Z,27.03
2018-04-16T07:52:52.579Z,26.83
2018-04-16T07:55:57.337Z,26.70
2018-04-16T07:59:00.495Z,25.40
2018-04-16T08:02:03.700Z,27.47
2018-04-16T08:05:06.857Z,27.67
2018-04-16T08:08:10.564Z,25.60
2018-04-16T08:11:13.722Z,24.33
2018-04-16T08:14:16.912Z,27.03
2018-04-16T08:17:20.049Z,25.47
2018-04-16T08:20:24.003Z,26.63
2018-04-16T08:23:27.168Z,24.63
2018-04-16T08:26:31.123Z,26.23
2018-04-16T08:29:34.259Z,25.70
2018-04-16T08:32:37.445Z,24.40
2018-04-16T08:35:40.602Z,25.07
2018-04-16T08:38:43.884Z,26.23
2018-04-16T08:41:47.034Z,26.20
2018-04-16T08:44:50.220Z,25.50
2018-04-16T08:47:54.200Z,25.43
2018-04-16T08:50:57.373Z,25.73
2018-04-16T08:54:00.540Z,25.03
2018-04-16T08:57:04.514Z,26.13
2018-04-16T09:00:08.493Z,25.20
2018-04-16T09:03:11.676Z,24.13
2018-04-16T09:06:14.918Z,24.13
2018-04-16T09:09:18.119Z,23.20
2018-04-16T09:12:21.302Z,23.60
2018-04-16T09:15:24.512Z,21.77
2018-04-16T09:18:28.498Z,22.37
2018-04-16T09:21:31.670Z,22.00
2018-04-16T09:24:35.686Z,19.87
2018-04-16T09:27:38.951Z,19.60
2018-04-16T09:30:42.641Z,16.30
2018-04-16T09:33:45.966Z,16.83
2018-04-16T09:36:49.938Z,16.83
2018-04-16T09:39:53.188Z,17.27
2018-04-16T09:42:56.462Z,13.67
2018-04-16T09:45:59.693Z,12.87
2018-04-16T09:49:02.892Z,11.00
2018-04-16T09:52:06.103Z,12.00
2018-04-16T09:55:10.119Z,12.67
2018-04-16T09:58:13.343Z,13.77
2018-04-16T10:01:21.219Z,13.30
2018-04-16T10:04:25.008Z,14.17
2018-04-16T10:07:28.226Z,13.07
2018-04-16T10:10:31.424Z,12.47
2018-04-16T10:13:34.599Z,11.90
2018-04-16T10:16:37.852Z,12.60
2018-04-16T10:19:41.070Z,12.40
2018-04-16T10:22:46.451Z,11.63
2018-04-16T10:25:49.601Z,12.47
2018-04-16T10:28:52.789Z,11.63
2018-04-16T10:31:56.050Z,11.73
2018-04-16T10:34:59.269Z,11.57
2018-04-16T10:38:02.483Z,11.97
2018-04-16T10:41:05.739Z,11.13
2018-04-16T10:44:09.721Z,11.70
2018-04-16T10:47:12.907Z,11.43
2018-04-16T10:50:16.130Z,11.97
2018-04-16T10:53:19.791Z,10.33
2018-04-16T10:56:22.974Z,11.17
2018-04-16T10:59:26.168Z,11.73
2018-04-16T11:02:29.371Z,10.07
2018-04-16T11:05:32.601Z,10.77
2018-04-16T11:08:35.804Z,9.77
2018-04-16T11:11:38.993Z,9.90
2018-04-16T11:14:42.252Z,9.17
2018-04-16T11:17:45.541Z,9.67
2018-04-16T11:20:48.701Z,9.70
2018-04-16T11:23:51.875Z,8.87
2018-04-16T11:26:56.027Z,8.60
2018-04-16T11:29:59.974Z,9.13
2018-04-16T11:33:03.136Z,8.67
2018-04-16T11:36:06.310Z,8.20
2018-04-16T11:39:09.486Z,9.13
2018-04-16T11:42:12.760Z,7.73
2018-04-16T11:45:15.924Z,7.87
2018-04-16T11:48:19.863Z,9.10
2018-04-16T11:51:23.036Z,9.27
2018-04-16T11:54:26.227Z,7.33
2018-04-16T11:57:30.674Z,8.13
2018-04-16T12:00:33.835Z,7.20
2018-04-16T12:03:37.001Z,6.87
2018-04-16T12:06:40.161Z,7.03
2018-04-16T12:09:43.550Z,7.37
2018-04-16T12:12:46.755Z,7.23
2018-04-16T12:15:49.950Z,7.57
2018-04-16T12:18:53.136Z,6.87
2018-04-16T12:22:03.042Z,6.77
2018-04-16T12:25:06.987Z,6.40
2018-04-16T12:28:10.156Z,7.13
2018-04-16T12:31:19.429Z,7.03
2018-04-16T12:34:28.504Z,6.60
2018-04-16T12:37:31.677Z,7.57
2018-04-16T12:40:34.867Z,6.00
2018-04-16T12:43:38.047Z,6.20
2018-04-16T12:46:41.201Z,5.73
2018-04-16T12:49:44.496Z,6.37
2018-04-16T12:52:53.814Z,6.47
2018-04-16T12:55:56.976Z,6.10
2018-04-16T12:59:00.138Z,5.77
2018-04-16T13:02:03.301Z,5.87
2018-04-16T13:05:13.049Z,4.43
2018-04-16T13:08:27.836Z,4.93
2018-04-16T13:11:31.027Z,5.20
2018-04-16T13:14:34.573Z,4.37
2018-04-16T13:17:39.284Z,4.33
2018-04-16T13:20:43.459Z,3.00
2018-04-16T13:23:47.431Z,2.90
2018-04-16T13:26:56.426Z,3.50
2018-04-16T13:30:05.304Z,3.80
2018-04-16T13:33:08.534Z,4.13
2018-04-16T13:36:23.416Z,4.20
2018-04-16T13:39:32.215Z,3.70
2018-04-16T13:42:35.424Z,2.60
2018-04-16T13:45:38.660Z,1.30
2018-04-16T13:48:41.837Z,2.13
2018-04-16T13:51:45.170Z,2.30
2018-04-16T13:54:48.406Z,2.10
2018-04-16T13:57:57.604Z,2.37
2018-04-16T14:01:00.799Z,2.50
2018-04-16T14:04:10.756Z,2.07
2018-04-16T14:07:26.224Z,2.73
2018-04-16T14:10:29.418Z,2.70
2018-04-16T14:13:32.644Z,2.30
2018-04-16T14:16:36.617Z,2.67
2018-04-16T14:19:39.827Z,2.80
2018-04-16T14:22:43.282Z,3.00
2018-04-16T14:25:52.251Z,3.20
2018-04-16T14:28:56.251Z,2.80
2018-04-16T14:31:59.454Z,3.20
2018-04-16T14:35:02.634Z,3.30
2018-04-16T14:38:06.718Z,3.47
2018-04-16T14:41:15.838Z,2.93
2018-04-16T14:44:26.832Z,2.77
2018-04-16T14:47:35.770Z,2.57
2018-04-16T14:50:39.052Z,2.53
2018-04-16T14:53:42.329Z,2.60
2018-04-16T14:56:45.715Z,2.67
2018-04-16T14:59:48.888Z,2.30
2018-04-16T15:02:58.130Z,3.00
2018-04-16T15:06:07.276Z,3.13
2018-04-16T15:09:16.229Z,2.80
2018-04-16T15:12:25.206Z,3.97
2018-04-16T15:15:28.407Z,4.80
2018-04-16T15:18:32.066Z,3.87
2018-04-16T15:21:35.984Z,3.77
2018-04-16T15:24:40.095Z,3.83
2018-04-16T15:27:43.349Z,3.47
2018-04-16T15:30:46.561Z,4.20
2018-04-16T15:33:50.501Z,4.97
2018-04-16T15:36:53.690Z,3.80
2018-04-16T15:39:56.868Z,3.33
2018-04-16T15:43:00.063Z,3.27
2018-04-16T15:46:03.234Z,3.60
2018-04-16T15:49:06.912Z,3.83
2018-04-16T15:52:10.223Z,3.13
2018-04-16T15:55:14.244Z,2.90
2018-04-16T15:58:17.440Z,2.67
2018-04-16T16:01:20.627Z,2.47
2018-04-16T16:04:23.921Z,2.57
2018-04-16T16:07:27.083Z,2.00
2018-04-16T16:10:30.265Z,2.30
2018-04-16T16:13:34.222Z,2.17
2018-04-16T16:16:37.679Z,2.40
2018-04-16T16:19:41.789Z,2.30
2018-04-16T16:22:44.984Z,2.30
2018-04-16T16:25:48.186Z,2.03
2018-04-16T16:28:51.374Z,1.93
2018-04-16T16:31:55.360Z,2.00
2018-04-16T16:34:58.573Z,2.00
2018-04-16T16:38:02.517Z,2.40
2018-04-16T16:41:05.759Z,2.80
2018-04-16T16:44:09.736Z,2.73
2018-04-16T16:47:12.937Z,2.87
2018-04-16T16:50:16.667Z,3.33
2018-04-16T16:53:20.684Z,5.70
2018-04-16T16:56:23.966Z,2.70
2018-04-16T16:59:27.186Z,2.80
2018-04-16T17:02:30.477Z,2.97
2018-04-16T17:05:33.756Z,3.57
2018-04-16T17:08:37.011Z,3.43
2018-04-16T17:11:40.235Z,3.30
2018-04-16T17:14:45.156Z,3.27
2018-04-16T17:17:48.357Z,3.20
2018-04-16T17:20:52.267Z,3.30
2018-04-16T17:23:55.421Z,3.30
2018-04-16T17:26:59.631Z,3.20
2018-04-16T17:30:02.809Z,3.20
2018-04-16T17:33:06.741Z,3.03
2018-04-16T17:36:09.937Z,3.40
2018-04-16T17:39:13.160Z,3.60
2018-04-16T17:42:16.367Z,4.80
2018-04-16T17:45:19.521Z,4.73
2018-04-16T17:48:22.794Z,4.93
2018-04-16T17:51:26.363Z,4.27
2018-04-16T17:54:29.620Z,4.23
2018-04-16T17:57:32.791Z,3.43
2018-04-16T18:00:36.012Z,3.30
2018-04-16T18:03:39.210Z,3.73
2018-04-16T18:06:42.425Z,4.40
2018-04-16T18:09:46.667Z,4.30
2018-04-16T18:12:49.778Z,4.10
2018-04-16T18:15:53.803Z,3.47
2018-04-16T18:18:57.725Z,5.30
2018-04-16T18:22:01.600Z,5.10
2018-04-16T18:25:04.870Z,5.57
2018-04-16T18:28:08.016Z,5.27
2018-04-16T18:31:12.022Z,6.10
2018-04-16T18:34:15.236Z,5.90
2018-04-16T18:37:18.412Z,6.40
2018-04-16T18:40:22.357Z,5.93
2018-04-16T18:43:26.330Z,6.47
2018-04-16T18:46:29.483Z,6.00
2018-04-16T18:49:32.813Z,5.53
2018-04-16T18:52:35.956Z,5.20
2018-04-16T18:55:39.124Z,5.80
2018-04-16T18:58:43.292Z,13.73
2018-04-16T19:01:46.475Z,7.87
2018-04-16T19:04:49.641Z,8.90
2018-04-16T19:07:53.627Z,7.70
2018-04-16T19:10:57.599Z,8.87
2018-04-16T19:14:00.799Z,7.83
2018-04-16T19:17:04.017Z,6.27
2018-04-16T19:20:08.231Z,6.63
2018-04-16T19:23:11.396Z,6.07
2018-04-16T19:26:14.590Z,6.00
2018-04-16T19:29:17.987Z,6.03
2018-04-16T19:32:21.177Z,7.23
2018-04-16T19:35:24.369Z,5.87
2018-04-16T19:38:27.572Z,4.50
2018-04-16T19:41:36.422Z,4.83
2018-04-16T19:44:39.614Z,5.00
2018-04-16T19:47:43.964Z,5.43
2018-04-16T19:50:47.169Z,4.97
2018-04-16T19:53:51.100Z,5.07
2018-04-16T19:57:00.034Z,5.57
2018-04-16T20:00:03.198Z,6.03
2018-04-16T20:03:12.192Z,5.37
2018-04-16T20:06:15.667Z,6.10
2018-04-16T20:09:18.806Z,5.83
2018-04-16T20:12:21.971Z,7.37
2018-04-16T20:15:25.129Z,6.23
2018-04-16T20:18:28.327Z,7.03
2018-04-16T20:21:31.491Z,7.73
2018-04-16T20:24:34.687Z,7.37
2018-04-16T20:27:38.617Z,6.20
2018-04-16T20:30:41.865Z,6.30
2018-04-16T20:33:45.220Z,6.43
2018-04-16T20:36:48.490Z,6.43
2018-04-16T20:39:51.809Z,5.80
2018-04-16T20:42:55.118Z,5.83
2018-04-16T20:45:58.313Z,6.23
2018-04-16T20:49:01.487Z,6.33
2018-04-16T20:52:04.839Z,6.13
2018-04-16T20:55:08.012Z,6.17
2018-04-16T20:58:11.206Z,5.70
2018-04-16T21:01:14.447Z,5.70
2018-04-16T21:04:17.782Z,5.67
2018-04-16T21:07:21.009Z,5.07
2018-04-16T21:10:24.300Z,4.77
2018-04-16T21:13:28.472Z,4.70
2018-04-16T21:16:31.761Z,4.83
2018-04-16T21:19:35.149Z,5.60
2018-04-16T21:22:38.404Z,5.90
2018-04-16T21:25:41.652Z,5.43
2018-04-16T21:28:45.139Z,5.57
2018-04-16T21:31:49.072Z,5.90
2018-04-16T21:34:53.761Z,5.00
2018-04-16T21:37:56.938Z,5.07
2018-04-16T21:41:00.190Z,5.67
2018-04-16T21:44:03.313Z,5.93
2018-04-16T21:47:06.505Z,5.73
2018-04-16T21:50:09.663Z,6.40
2018-04-16T21:53:12.841Z,6.57
2018-04-16T21:56:16.772Z,7.00
2018-04-16T21:59:19.988Z,6.23
2018-04-16T22:02:23.163Z,6.87
2018-04-16T22:05:26.357Z,7.47
2018-04-16T22:08:29.552Z,7.40
2018-04-16T22:11:32.751Z,6.30
2018-04-16T22:14:35.989Z,6.20
2018-04-16T22:17:39.160Z,5.83
2018-04-16T22:20:43.421Z,5.67
2018-04-16T22:23:46.628Z,6.00
2018-04-16T22:26:49.784Z,5.70
2018-04-16T22:29:52.972Z,5.60
2018-04-16T22:32:56.125Z,5.53
2018-04-16T22:35:59.320Z,6.00
2018-04-16T22:39:02.504Z,6.30
2018-04-16T22:42:06.433Z,6.93
2018-04-16T22:45:15.860Z,7.10
2018-04-16T22:48:20.420Z,7.50
2018-04-16T22:51:23.654Z,7.70
2018-04-16T22:54:27.757Z,6.97
2018-04-16T22:57:32.075Z,8.13
2018-04-16T23:00:37.394Z,8.20
2018-04-16T23:03:41.894Z,6.00
2018-04-16T23:06:45.374Z,5.53
2018-04-16T23:13:47.150Z,5.23
2018-04-16T23:25:37.174Z,6.37
2018-04-16T23:28:49.708Z,5.60
2018-04-16T23:31:53.025Z,6.37
2018-04-16T23:34:56.270Z,5.60
2018-04-16T23:37:59.578Z,6.27
2018-04-16T23:41:10.898Z,6.97
2018-04-16T23:44:14.350Z,7.70
2018-04-16T23:47:17.614Z,7.80
2018-04-16T23:50:35.054Z,7.73
2018-04-16T23:53:41.112Z,8.17
2018-04-16T23:56:45.431Z,8.60
2018-04-16T23:59:48.763Z,11.43
